Time;durP1;ratioP1;P1;durP2;ratioP2;P2;SDS_P1;SDS_P2;PMS_P1;PMS_P2;Temp;Humidity;BMP_temperature;BMP_pressure;BME280_temperature;BME280_humidity;BME280_pressure;Samples;Min_cycle;Max_cycle;Signal;HPM_P1;HPM_P2
2023/10/05 00:00:57;;;;;;;6.75;3.00;;;12.90;36.70;;;;;;5025018;28;20045;-87
2023/10/05 00:03:23;;;;;;;8.10;2.50;;;12.90;37.50;;;;;;5027659;28;20098;-87
2023/10/05 00:05:49;;;;;;;7.45;2.92;;;12.90;38.90;;;;;;5046835;28;20078;-87
2023/10/05 00:08:15;;;;;;;8.68;3.33;;;12.90;39.60;;;;;;5042285;28;20121;-88
2023/10/05 00:10:40;;;;;;;8.50;2.83;;;12.90;40.00;;;;;;5059648;28;20055;-88
2023/10/05 00:13:07;;;;;;;4.23;2.67;;;12.90;40.70;;;;;;5077209;28;20088;-87
2023/10/05 00:15:36;;;;;;;;;;;12.90;41.00;;;;;;5059325;28;20062;-88
2023/10/05 00:18:05;;;;;;;7.72;3.03;;;12.90;50.10;;;;;;5060094;28;19920;-87
2023/10/05 00:20:39;;;;;;;6.65;3.28;;;12.90;41.60;;;;;;5043259;28;20406;-87
2023/10/05 00:23:08;;;;;;;6.65;3.30;;;12.90;43.10;;;;;;5059305;28;20048;-87
2023/10/05 00:25:35;;;;;;;11.50;3.20;;;12.90;43.50;;;;;;5042387;28;20490;-87
2023/10/05 00:28:07;;;;;;;6.45;2.67;;;12.90;43.90;;;;;;5042724;28;20052;-87
2023/10/05 00:30:33;;;;;;;9.35;2.75;;;13.00;45.20;;;;;;5058862;28;20513;-87
2023/10/05 00:33:00;;;;;;;10.23;2.95;;;13.00;45.20;;;;;;5042884;28;20052;-87
2023/10/05 00:35:33;;;;;;;13.68;3.00;;;13.00;46.20;;;;;;5041837;28;20040;-88
2023/10/05 00:38:34;;;;;;;7.53;3.38;;;13.00;47.00;;;;;;5029811;28;20102;-87
2023/10/05 00:43:24;;;;;;;5.87;2.70;;;13.00;49.10;;;;;;5043525;28;20047;-87
2023/10/05 00:45:51;;;;;;;6.53;2.78;;;13.00;49.80;;;;;;5031233;28;20052;-87
2023/10/05 00:48:34;;;;;;;7.20;2.83;;;13.00;49.90;;;;;;5039382;28;20053;-87
2023/10/05 00:51:03;;;;;;;7.38;3.13;;;13.00;50.90;;;;;;5026346;28;20054;-88
2023/10/05 00:53:30;;;;;;;6.18;2.80;;;13.00;51.20;;;;;;5025543;28;20098;-87
2023/10/05 00:56:12;;;;;;;8.70;3.33;;;13.00;51.50;;;;;;5058322;28;20084;-87
2023/10/05 00:58:47;;;;;;;7.43;2.90;;;13.00;52.40;;;;;;5045791;28;20048;-87
2023/10/05 01:01:21;;;;;;;7.22;2.67;;;13.00;52.60;;;;;;5028912;28;20036;-87
2023/10/05 01:09:53;;;;;;;7.50;2.17;;;13.10;53.20;;;;;;4978271;28;20054;-87
2023/10/05 01:14:51;;;;;;;8.95;2.75;;;13.10;53.50;;;;;;5058405;28;20051;-87
2023/10/05 01:17:21;;;;;;;7.20;3.30;;;13.10;53.70;;;;;;5043122;28;20083;-87
2023/10/05 01:19:58;;;;;;;9.27;3.50;;;13.10;54.40;;;;;;5057138;28;20482;-87
2023/10/05 01:22:32;;;;;;;9.98;2.92;;;13.10;55.10;;;;;;5058393;28;20440;-86
2023/10/05 01:25:02;;;;;;;8.07;2.58;;;13.10;55.30;;;;;;5059268;28;20418;-87
2023/10/05 01:27:29;;;;;;;10.60;2.75;;;13.10;55.40;;;;;;5076694;28;20083;-87
2023/10/05 01:29:55;;;;;;;10.85;3.40;;;13.00;55.80;;;;;;5056914;28;20383;-88
2023/10/05 01:32:22;;;;;;;9.73;3.13;;;13.10;56.40;;;;;;5031626;28;20098;-87
2023/10/05 01:34:49;;;;;;;10.52;3.45;;;13.00;56.40;;;;;;5051291;28;20048;-87
2023/10/05 01:37:22;;;;;;;9.65;3.78;;;13.00;56.90;;;;;;5036093;28;20055;-87
2023/10/05 01:39:48;;;;;;;7.03;2.80;;;13.00;57.30;;;;;;5050016;28;20485;-87
2023/10/05 01:42:14;;;;;;;6.20;3.08;;;13.00;57.70;;;;;;5049305;28;20133;-87
2023/10/05 01:44:47;;;;;;;8.77;3.10;;;13.00;58.20;;;;;;5056821;28;20103;-87
2023/10/05 01:47:16;;;;;;;8.48;3.50;;;13.00;58.60;;;;;;5065813;28;20048;-87
2023/10/05 01:49:46;;;;;;;5.40;2.80;;;13.00;59.20;;;;;;5032860;28;20077;-87
2023/10/05 01:52:17;;;;;;;9.85;4.18;;;13.00;59.40;;;;;;5074718;28;20047;-88
2023/10/05 01:54:44;;;;;;;6.63;3.13;;;13.00;59.80;;;;;;5040722;28;20485;-87
2023/10/05 01:57:12;;;;;;;8.30;3.78;;;13.00;59.90;;;;;;5058012;28;20432;-87
2023/10/05 01:59:40;;;;;;;12.13;3.30;;;13.00;60.50;;;;;;5074521;28;20405;-87
2023/10/05 02:02:15;;;;;;;10.32;4.25;;;13.00;60.90;;;;;;5057472;28;20055;-88
2023/10/05 02:04:43;;;;;;;8.40;2.58;;;13.00;61.00;;;;;;5042939;28;20048;-87
2023/10/05 02:07:14;;;;;;;11.10;3.33;;;13.00;61.10;;;;;;5058725;28;20079;-87
2023/10/05 02:09:40;;;;;;;8.20;2.47;;;13.00;61.70;;;;;;5056821;28;20509;-87
2023/10/05 02:12:07;;;;;;;9.43;4.00;;;13.00;62.20;;;;;;5021828;28;20084;-87
2023/10/05 02:14:34;;;;;;;5.25;2.63;;;13.00;62.10;;;;;;5037980;28;20083;-87
2023/10/05 02:17:00;;;;;;;5.88;2.85;;;12.90;62.30;;;;;;5047242;28;20437;-87
2023/10/05 02:19:26;;;;;;;8.70;3.15;;;13.00;62.90;;;;;;5041387;28;20055;-87
2023/10/05 02:21:54;;;;;;;5.57;2.13;;;13.00;63.50;;;;;;5057114;28;20044;-87
2023/10/05 02:24:25;;;;;;;6.50;3.60;;;13.00;63.70;;;;;;5040399;28;20050;-87
2023/10/05 02:29:21;;;;;;;5.38;3.22;;;13.00;64.10;;;;;;5040938;28;20079;-87
2023/10/05 02:32:02;;;;;;;6.28;2.60;;;13.00;64.50;;;;;;5057322;28;20052;-87
2023/10/05 02:34:38;;;;;;;11.63;3.40;;;12.90;65.00;;;;;;5042328;28;20057;-87
2023/10/05 02:37:05;;;;;;;5.90;3.05;;;12.90;65.30;;;;;;5040376;28;20040;-87
2023/10/05 02:39:37;;;;;;;7.60;2.90;;;12.90;65.90;;;;;;5039529;28;20071;-87
2023/10/05 02:42:06;;;;;;;7.90;3.08;;;13.00;66.20;;;;;;5073219;28;20056;-86
2023/10/05 02:44:35;;;;;;;5.95;2.63;;;13.00;66.00;;;;;;5055017;28;20045;-88
2023/10/05 02:47:14;;;;;;;11.70;3.58;;;13.00;65.90;;;;;;5033715;28;20049;-87
2023/10/05 02:49:44;;;;;;;6.07;2.72;;;13.00;65.70;;;;;;5006677;28;20481;-87
2023/10/05 02:52:13;;;;;;;6.07;2.80;;;13.00;65.20;;;;;;5037206;28;20178;-87
2023/10/05 02:54:48;;;;;;;12.32;3.80;;;13.00;64.80;;;;;;5033435;28;20127;-87
2023/10/05 02:57:16;;;;;;;9.35;3.13;;;13.10;64.70;;;;;;5048910;28;20049;-88
2023/10/05 02:59:46;;;;;;;11.48;3.13;;;13.10;64.80;;;;;;5037376;28;20075;-87
2023/10/05 03:02:16;;;;;;;11.05;3.22;;;13.10;65.10;;;;;;5036567;28;20183;-88
2023/10/05 03:04:46;;;;;;;10.65;3.67;;;13.10;65.30;;;;;;5045297;28;20453;-88
2023/10/05 03:07:17;;;;;;;8.85;3.78;;;13.10;65.60;;;;;;5004165;28;20077;-87
2023/10/05 03:09:47;;;;;;;9.55;3.25;;;13.10;66.10;;;;;;5036051;28;20509;-88
2023/10/05 03:12:14;;;;;;;8.95;3.25;;;13.10;66.20;;;;;;5036859;28;20057;-87
2023/10/05 03:14:43;;;;;;;8.68;3.10;;;13.10;66.60;;;;;;5035647;28;20133;-88
2023/10/05 03:17:12;;;;;;;7.45;2.80;;;13.00;67.30;;;;;;5035445;28;20402;-87
2023/10/05 03:19:39;;;;;;;9.15;3.20;;;13.00;67.20;;;;;;5037508;28;20057;-87
2023/10/05 03:22:07;;;;;;;7.75;2.90;;;13.00;68.30;;;;;;5052526;28;20436;-87
2023/10/05 03:24:35;;;;;;;10.07;3.25;;;13.00;67.10;;;;;;5020506;28;20044;-87
2023/10/05 03:27:03;;;;;;;5.97;3.20;;;13.00;67.20;;;;;;5053100;28;20049;-88
2023/10/05 03:29:29;;;;;;;9.55;3.42;;;12.90;67.20;;;;;;5054444;28;20056;-87
2023/10/05 03:32:13;;;;;;;16.20;4.75;;;12.90;67.40;;;;;;5035846;28;20049;-88
2023/10/05 03:34:42;;;;;;;6.57;2.88;;;12.90;67.70;;;;;;5031336;28;20128;-88
2023/10/05 03:37:12;;;;;;;10.15;4.10;;;12.90;68.20;;;;;;5035465;28;20037;-88
2023/10/05 03:42:22;;;;;;;6.82;3.08;;;12.30;69.30;;;;;;5031102;28;20052;-87
2023/10/05 03:45:01;;;;;;;7.10;3.25;;;12.90;69.20;;;;;;5020870;28;20098;-87
2023/10/05 03:47:27;;;;;;;11.13;3.28;;;12.90;68.60;;;;;;5035667;28;20124;-87
2023/10/05 03:49:55;;;;;;;14.40;3.00;;;12.90;68.60;;;;;;5042149;28;20053;-88
2023/10/05 03:52:32;;;;;;;13.60;4.80;;;12.90;68.30;;;;;;5030242;28;20068;-86
2023/10/05 03:55:10;;;;;;;7.10;3.10;;;12.90;68.30;;;;;;5041033;28;20538;-87
2023/10/05 03:57:37;;;;;;;8.32;3.08;;;12.90;68.20;;;;;;5050593;28;20067;-87
2023/10/05 04:00:23;;;;;;;8.85;3.88;;;12.90;68.30;;;;;;5039277;28;20444;-87
2023/10/05 04:02:53;;;;;;;8.95;3.13;;;12.90;68.80;;;;;;5056727;28;20056;-87
2023/10/05 04:05:21;;;;;;;9.45;3.40;;;12.90;68.80;;;;;;5056033;28;20051;-86
2023/10/05 04:07:55;;;;;;;9.07;3.10;;;12.90;68.70;;;;;;5056464;28;20048;-88
2023/10/05 04:10:27;;;;;;;7.78;3.10;;;12.90;68.90;;;;;;5057926;28;20048;-86
2023/10/05 04:12:54;;;;;;;9.38;2.90;;;12.90;69.20;;;;;;5056817;28;20045;-87
2023/10/05 04:15:20;;;;;;;9.27;4.03;;;12.90;69.70;;;;;;5039620;28;20083;-87
2023/10/05 04:17:49;;;;;;;8.75;2.95;;;12.90;70.30;;;;;;5039665;28;20045;-87
2023/10/05 04:20:28;;;;;;;10.25;3.05;;;12.90;70.60;;;;;;5056354;28;20048;-88
2023/10/05 04:22:55;;;;;;;7.82;2.85;;;12.90;70.90;;;;;;5027185;28;20071;-87
2023/10/05 04:25:20;;;;;;;;;;;12.90;70.70;;;;;;5043824;28;20054;-87
2023/10/05 04:27:46;;;;;;;14.50;4.78;;;12.90;75.90;;;;;;5060396;28;20011;-87
2023/10/05 04:30:17;;;;;;;7.47;2.97;;;12.80;69.70;;;;;;5059366;28;20127;-87
2023/10/05 04:32:43;;;;;;;8.27;3.03;;;12.90;69.50;;;;;;5059259;28;20049;-87
2023/10/05 04:35:38;;;;;;;9.30;3.92;;;12.90;70.00;;;;;;5042593;28;20127;-87
2023/10/05 04:37:56;;;;;;;8.00;2.85;;;12.90;70.40;;;;;;5044011;28;20498;-88
2023/10/05 04:40:24;;;;;;;10.30;3.05;;;12.90;70.60;;;;;;5059989;28;20048;-87
2023/10/05 04:42:51;;;;;;;14.82;3.85;;;12.90;70.90;;;;;;5058626;28;20052;-87
2023/10/05 04:45:17;;;;;;;11.35;3.13;;;12.90;71.00;;;;;;5042178;28;20468;-88
2023/10/05 04:47:45;;;;;;;8.85;3.63;;;12.90;71.60;;;;;;5058806;28;20059;-87
2023/10/05 04:50:15;;;;;;;10.30;3.60;;;12.90;71.60;;;;;;5041932;28;20045;-87
2023/10/05 04:52:41;;;;;;;7.65;3.45;;;12.90;72.20;;;;;;5058465;28;20075;-87
2023/10/05 04:55:31;;;;;;;8.57;2.97;;;12.90;72.60;;;;;;5051637;28;20044;-87
2023/10/05 04:58:15;;;;;;;9.00;3.05;;;12.90;73.00;;;;;;5042424;28;20061;-88
2023/10/05 05:06:10;;;;;;;6.80;2.70;;;12.90;74.00;;;;;;5058510;28;20044;-87
2023/10/05 05:08:40;;;;;;;9.77;3.95;;;12.90;73.90;;;;;;5057633;28;20493;-87
2023/10/05 05:11:18;;;;;;;8.93;3.63;;;12.90;73.70;;;;;;5058053;28;20135;-88
2023/10/05 05:13:48;;;;;;;8.32;3.55;;;12.90;75.10;;;;;;5053580;28;20423;-88
2023/10/05 05:16:18;;;;;;;10.70;2.95;;;12.90;73.30;;;;;;5058166;28;20045;-87
2023/10/05 05:18:44;;;;;;;14.90;3.58;;;12.90;73.00;;;;;;5039772;28;20052;-88
2023/10/05 05:21:11;;;;;;;11.10;3.33;;;12.90;72.90;;;;;;5047253;28;20040;-87
2023/10/05 05:23:37;;;;;;;8.30;2.80;;;12.90;73.10;;;;;;5039363;28;20444;-87
2023/10/05 05:26:03;;;;;;;5.82;3.08;;;12.90;73.00;;;;;;5042629;28;20075;-87
2023/10/05 05:28:31;;;;;;;6.70;3.30;;;12.90;73.10;;;;;;5040470;28;20044;-87
2023/10/05 05:31:07;;;;;;;9.77;3.72;;;12.90;73.10;;;;;;5050978;28;20060;-87
2023/10/05 05:33:36;;;;;;;10.75;3.60;;;12.90;73.30;;;;;;5054473;28;20500;-87
2023/10/05 05:36:11;;;;;;;8.38;3.63;;;12.90;73.40;;;;;;5056579;28;20048;-87
2023/10/05 05:38:38;;;;;;;11.35;3.75;;;12.90;73.00;;;;;;5041563;28;20048;-87
2023/10/05 05:41:19;;;;;;;11.23;4.30;;;12.90;73.30;;;;;;5011563;28;20036;-87
2023/10/05 05:43:45;;;;;;;8.95;3.53;;;12.80;73.50;;;;;;5037469;28;20127;-87
2023/10/05 05:46:12;;;;;;;9.77;3.30;;;12.80;73.80;;;;;;5050168;28;20049;-87
2023/10/05 05:48:48;;;;;;;10.73;3.58;;;12.80;73.80;;;;;;5058066;28;20049;-87
2023/10/05 05:51:14;;;;;;;11.60;3.88;;;12.90;74.00;;;;;;5041493;28;20041;-87
2023/10/05 05:53:44;;;;;;;9.13;3.20;;;12.90;74.00;;;;;;5042947;28;20040;-88
2023/10/05 05:56:16;;;;;;;9.90;3.83;;;12.90;73.90;;;;;;5040387;28;20062;-87
2023/10/05 05:58:47;;;;;;;11.93;3.83;;;12.90;74.00;;;;;;5040972;28;20041;-88
2023/10/05 06:01:20;;;;;;;8.13;2.92;;;12.90;73.30;;;;;;5040292;28;20049;-87
2023/10/05 06:03:49;;;;;;;10.63;3.15;;;12.90;72.60;;;;;;5058397;28;20083;-87
2023/10/05 06:06:16;;;;;;;7.60;2.75;;;12.90;72.30;;;;;;5056298;28;20420;-88
2023/10/05 06:08:42;;;;;;;;;;;13.00;72.20;;;;;;5058209;28;20067;-87
2023/10/05 06:11:08;;;;;;;13.25;3.58;;;13.00;75.00;;;;;;5028943;28;20000;-87
2023/10/05 06:13:38;;;;;;;12.38;4.35;;;13.00;71.90;;;;;;4994603;28;20048;-88
2023/10/05 06:16:10;;;;;;;10.75;3.83;;;13.00;71.70;;;;;;5024586;28;20142;-87
2023/10/05 06:18:36;;;;;;;7.35;3.20;;;13.10;72.10;;;;;;5057719;28;20536;-88
2023/10/05 06:21:03;;;;;;;7.47;3.60;;;13.10;72.20;;;;;;5058873;28;20053;-87
2023/10/05 06:23:28;;;;;;;7.75;3.55;;;13.10;72.60;;;;;;5040234;28;20055;-87
2023/10/05 06:25:56;;;;;;;7.50;3.50;;;13.10;73.00;;;;;;5057615;28;20037;-86
2023/10/05 06:28:22;;;;;;;14.25;3.63;;;13.20;73.70;;;;;;5056159;28;20482;-87
2023/10/05 06:30:52;;;;;;;14.95;4.30;;;13.20;74.20;;;;;;5040859;28;20044;-87
2023/10/05 06:33:19;;;;;;;11.35;4.05;;;13.30;74.90;;;;;;5024050;28;20045;-88
2023/10/05 06:35:46;;;;;;;8.25;3.30;;;13.20;75.40;;;;;;5060018;28;20052;-85
2023/10/05 06:38:12;;;;;;;;;;;13.30;76.00;;;;;;5038552;28;20488;-85
2023/10/05 06:40:37;;;;;;;16.88;3.58;;;13.30;81.50;;;;;;5037531;28;19931;-85
2023/10/05 06:43:05;;;;;;;8.53;4.07;;;13.40;75.90;;;;;;5037931;28;20047;-85
2023/10/05 06:45:31;;;;;;;15.20;4.95;;;13.30;75.90;;;;;;5055082;28;20414;-85
2023/10/05 06:47:57;;;;;;;10.05;3.72;;;13.40;76.80;;;;;;5053110;28;20037;-82
2023/10/05 06:50:23;;;;;;;12.93;4.03;;;13.40;77.50;;;;;;5071777;28;20409;-82
2023/10/05 06:52:49;;;;;;;12.17;4.37;;;13.40;78.90;;;;;;5072674;28;20041;-82
2023/10/05 06:55:21;;;;;;;10.35;3.53;;;13.40;79.90;;;;;;5054569;28;20360;-82
2023/10/05 06:57:50;;;;;;;6.90;3.25;;;13.40;80.80;;;;;;5053797;28;20398;-83
2023/10/05 07:00:22;;;;;;;8.45;3.40;;;13.40;81.80;;;;;;5054010;28;20055;-83
2023/10/05 07:02:49;;;;;;;9.07;3.78;;;13.40;82.80;;;;;;5070880;28;20037;-88
2023/10/05 07:05:16;;;;;;;11.40;3.50;;;13.40;82.90;;;;;;5068955;28;20040;-89
2023/10/05 07:07:42;;;;;;;7.07;3.42;;;13.50;83.30;;;;;;5047297;28;20405;-88
2023/10/05 07:10:10;;;;;;;13.43;4.13;;;13.50;83.60;;;;;;5074160;28;20048;-89
2023/10/05 07:12:46;;;;;;;12.77;4.60;;;13.50;83.70;;;;;;5055780;28;20040;-89
2023/10/05 07:15:21;;;;;;;10.90;3.83;;;13.60;84.90;;;;;;5041932;28;20102;-91
2023/10/05 07:17:48;;;;;;;6.40;3.22;;;13.70;85.20;;;;;;5055449;28;20079;-89
2023/10/05 07:20:17;;;;;;;14.48;3.97;;;13.80;83.50;;;;;;5074484;28;20482;-89
2023/10/05 07:22:45;;;;;;;9.32;3.55;;;13.90;82.00;;;;;;5055434;28;20977;-86
2023/10/05 07:25:12;;;;;;;15.93;4.15;;;13.90;81.20;;;;;;5074058;28;20048;-88
2023/10/05 07:27:38;;;;;;;;;;;14.00;80.50;;;;;;5056795;28;20485;-88
2023/10/05 07:30:05;;;;;;;13.02;4.30;;;14.00;80.90;;;;;;5072203;28;20250;-88
2023/10/05 07:32:32;;;;;;;8.27;4.10;;;14.10;78.80;;;;;;5056406;28;20048;-89
2023/10/05 07:34:57;;;;;;;;;;;14.10;78.20;;;;;;5023774;28;20067;-88
2023/10/05 07:37:23;;;;;;;11.23;4.18;;;14.20;80.10;;;;;;5054032;28;19920;-87
2023/10/05 07:39:51;;;;;;;10.82;3.53;;;14.30;76.80;;;;;;5073363;28;20049;-87
2023/10/05 07:42:17;;;;;;;13.98;3.88;;;14.30;75.30;;;;;;5071662;28;20044;-90
2023/10/05 07:44:46;;;;;;;11.38;4.15;;;14.30;74.50;;;;;;5024467;28;20082;-90
2023/10/05 07:47:11;;;;;;;10.10;4.28;;;14.30;74.00;;;;;;5057496;28;20044;-89
2023/10/05 07:49:38;;;;;;;12.33;3.77;;;14.30;73.90;;;;;;5038608;28;20052;-88
2023/10/05 07:52:09;;;;;;;12.15;4.38;;;14.40;74.30;;;;;;5021816;28;20445;-89
2023/10/05 07:54:35;;;;;;;9.60;4.15;;;14.40;75.10;;;;;;5055999;28;20517;-90
2023/10/05 07:57:02;;;;;;;13.85;4.15;;;14.50;75.60;;;;;;5041716;28;20063;-89
2023/10/05 07:59:28;;;;;;;;;;;14.60;75.30;;;;;;5043435;28;20052;-89
2023/10/05 08:01:55;;;;;;;14.55;4.18;;;14.50;73.20;;;;;;5041694;28;19921;-90
2023/10/05 08:04:22;;;;;;;13.38;4.43;;;14.70;73.20;;;;;;5043516;28;20072;-90
2023/10/05 08:06:49;;;;;;;8.50;3.85;;;14.70;71.50;;;;;;5043414;28;20601;-90
2023/10/05 08:09:15;;;;;;;11.25;3.60;;;14.70;70.10;;;;;;5059312;28;20104;-90
2023/10/05 08:11:44;;;;;;;10.32;4.43;;;14.70;69.20;;;;;;5059617;28;20139;-89
2023/10/05 08:14:13;;;;;;;10.05;3.65;;;14.70;68.40;;;;;;5059169;28;20053;-88
2023/10/05 08:16:39;;;;;;;13.43;4.75;;;14.70;68.00;;;;;;5057435;28;20055;-89
2023/10/05 08:19:05;;;;;;;16.08;4.50;;;14.70;68.10;;;;;;5073932;28;20051;-89
2023/10/05 08:21:31;;;;;;;8.95;4.47;;;14.70;68.00;;;;;;5054867;28;20044;-89
2023/10/05 08:23:58;;;;;;;9.30;4.40;;;14.80;67.70;;;;;;5051258;28;20045;-89
2023/10/05 08:26:28;;;;;;;10.68;3.83;;;14.80;67.30;;;;;;5057120;28;20055;-88
2023/10/05 08:28:57;;;;;;;15.70;4.57;;;14.80;66.70;;;;;;5023739;28;20048;-88
2023/10/05 08:31:24;;;;;;;12.02;4.53;;;14.70;66.40;;;;;;5031594;28;20047;-92
2023/10/05 08:33:53;;;;;;;15.95;4.40;;;14.70;67.20;;;;;;5044110;28;20048;-90
2023/10/05 08:36:20;;;;;;;13.32;4.18;;;14.70;68.60;;;;;;5042486;28;20041;-85
2023/10/05 08:38:48;;;;;;;11.95;4.82;;;14.70;69.90;;;;;;5043501;28;20055;-87
2023/10/05 08:41:34;;;;;;;8.50;3.58;;;14.70;71.40;;;;;;5054562;28;20045;-88
2023/10/05 08:44:06;;;;;;;13.77;4.80;;;14.70;73.80;;;;;;5058556;28;20040;-88
2023/10/05 08:46:43;;;;;;;10.40;4.55;;;14.70;74.70;;;;;;5058699;28;20060;-86
2023/10/05 08:49:15;;;;;;;14.43;3.70;;;14.70;75.80;;;;;;5042612;28;20389;-87
2023/10/05 08:51:41;;;;;;;9.98;3.70;;;14.70;76.20;;;;;;5053713;28;20494;-85
2023/10/05 08:54:11;;;;;;;20.65;6.03;;;14.70;77.50;;;;;;5074587;28;20124;-85
2023/10/05 08:56:47;;;;;;;19.65;5.10;;;14.70;79.10;;;;;;5057875;28;20052;-86
2023/10/05 08:59:14;;;;;;;11.93;6.10;;;14.70;80.00;;;;;;5054442;28;20044;-90
2023/10/05 09:01:46;;;;;;;11.32;5.28;;;14.60;80.30;;;;;;5036560;28;20098;-87
2023/10/05 09:06:49;;;;;;;12.25;3.85;;;14.70;81.90;;;;;;5022139;28;20102;-87
2023/10/05 09:09:26;;;;;;;14.82;4.60;;;14.70;83.10;;;;;;5038682;28;20128;-87
2023/10/05 09:11:52;;;;;;;8.77;3.97;;;14.70;82.70;;;;;;5030595;28;20048;-86
2023/10/05 09:14:27;;;;;;;9.47;4.40;;;14.70;82.60;;;;;;5015528;28;20041;-87
2023/10/05 09:17:04;;;;;;;12.65;4.97;;;14.70;83.30;;;;;;5055448;28;20758;-86
2023/10/05 09:19:33;;;;;;;;;;;14.80;84.90;;;;;;5054368;28;20070;-87
2023/10/05 09:24:28;;;;;;;14.10;4.50;;;14.80;83.80;;;;;;5056256;28;20083;-87
2023/10/05 09:27:09;;;;;;;11.05;4.35;;;14.80;83.70;;;;;;5026088;28;20071;-87
2023/10/05 09:29:36;;;;;;;11.93;4.57;;;14.90;84.20;;;;;;5052902;28;20044;-83
2023/10/05 09:32:11;;;;;;;11.73;4.28;;;14.90;84.70;;;;;;5053473;28;20128;-86
2023/10/05 09:34:38;;;;;;;10.02;4.25;;;15.00;84.70;;;;;;5053517;28;20056;-85
2023/10/05 09:37:09;;;;;;;8.25;4.53;;;15.00;85.50;;;;;;5052453;28;20089;-86
2023/10/05 09:39:44;;;;;;;8.52;4.35;;;15.10;86.50;;;;;;5038010;28;20102;-85
2023/10/05 09:42:16;;;;;;;7.68;4.70;;;15.10;87.10;;;;;;5040370;28;20501;-86
2023/10/05 09:45:12;;;;;;;9.88;3.75;;;15.10;87.50;;;;;;5058162;28;20044;-90
2023/10/05 09:47:40;;;;;;;9.20;4.47;;;15.10;88.80;;;;;;5040892;28;20098;-87
2023/10/05 09:50:13;;;;;;;8.73;4.20;;;15.00;89.60;;;;;;5072517;28;20094;-87
2023/10/05 09:52:43;;;;;;;10.32;4.00;;;15.00;90.50;;;;;;5045156;28;20050;-84
2023/10/05 09:55:12;;;;;;;7.45;4.10;;;14.90;91.30;;;;;;5037455;28;20037;-84
2023/10/05 09:57:46;;;;;;;10.60;5.22;;;14.90;91.90;;;;;;5038452;28;20049;-85
2023/10/05 10:00:47;;;;;;;15.80;7.13;;;14.90;92.30;;;;;;5054985;28;20072;-84
2023/10/05 10:03:15;;;;;;;11.75;5.40;;;14.90;92.60;;;;;;5057908;28;20045;-86
2023/10/05 10:05:42;;;;;;;12.20;5.47;;;14.90;93.20;;;;;;5040572;28;20044;-88
2023/10/05 10:08:21;;;;;;;12.80;5.55;;;14.80;93.60;;;;;;5036439;28;20102;-86
2023/10/05 10:11:07;;;;;;;8.05;3.92;;;14.80;95.30;;;;;;5037086;28;20133;-91
2023/10/05 10:13:39;;;;;;;11.45;3.92;;;14.80;94.90;;;;;;5060805;28;20045;-88
2023/10/05 10:16:21;;;;;;;10.95;4.00;;;14.70;94.70;;;;;;5069070;28;20544;-93
2023/10/05 10:18:47;;;;;;;14.07;4.93;;;14.70;95.90;;;;;;5071075;28;20052;-89
2023/10/05 10:21:24;;;;;;;13.23;4.82;;;14.70;95.40;;;;;;5037021;28;20052;-88
2023/10/05 10:24:03;;;;;;;;;;;14.60;97.20;;;;;;5039282;28;20153;-87
2023/10/05 10:26:30;;;;;;;8.82;3.75;;;14.60;99.90;;;;;;5056240;28;19924;-89
2023/10/05 10:28:57;;;;;;;7.53;3.35;;;14.50;98.20;;;;;;5056328;28;20036;-90
2023/10/05 10:31:30;;;;;;;13.60;3.72;;;14.60;99.50;;;;;;5041364;28;20166;-89
2023/10/05 10:34:08;;;;;;;11.57;4.65;;;14.60;99.90;;;;;;5041168;28;20507;-89
2023/10/05 10:36:47;;;;;;;9.40;4.70;;;14.70;99.90;;;;;;5041876;28;20053;-89
2023/10/05 10:39:23;;;;;;;8.65;5.15;;;14.80;99.90;;;;;;5058338;28;20097;-89
2023/10/05 10:42:07;;;;;;;13.88;5.82;;;14.90;99.90;;;;;;5041927;28;20044;-91
2023/10/05 10:44:58;;;;;;;13.68;6.22;;;15.10;99.90;;;;;;5059663;28;20087;-89
2023/10/05 10:47:26;;;;;;;11.40;5.85;;;15.30;99.90;;;;;;5062709;28;20055;-89
2023/10/05 10:50:37;;;;;;;13.60;5.38;;;15.50;99.90;;;;;;5078426;28;20055;-90
2023/10/05 10:53:16;;;;;;;13.52;6.13;;;15.70;99.90;;;;;;5060319;28;20048;-88
2023/10/05 10:56:03;;;;;;;8.98;4.97;;;15.80;99.90;;;;;;5051976;28;20049;-88
2023/10/05 10:58:32;;;;;;;9.63;5.25;;;15.80;99.90;;;;;;5045647;28;20098;-86
2023/10/05 11:01:22;;;;;;;11.65;4.95;;;15.90;99.90;;;;;;5037068;28;20049;-90
2023/10/05 11:03:56;;;;;;;11.02;4.78;;;16.00;99.90;;;;;;5037973;28;20115;-88
2023/10/05 11:06:26;;;;;;;10.80;5.10;;;16.00;99.90;;;;;;5020656;28;20049;-87
2023/10/05 11:08:52;;;;;;;12.63;4.47;;;16.20;99.90;;;;;;5035788;28;20059;-87
2023/10/05 11:11:21;;;;;;;15.27;5.35;;;16.30;99.90;;;;;;5052849;28;20049;-89
2023/10/05 11:14:00;;;;;;;10.30;5.00;;;16.40;99.90;;;;;;5035581;28;20056;-85
2023/10/05 11:16:43;;;;;;;13.88;6.47;;;16.40;99.90;;;;;;5052142;28;20045;-86
2023/10/05 11:19:13;;;;;;;9.85;4.35;;;16.30;97.50;;;;;;5046636;28;20335;-86
2023/10/05 11:21:45;;;;;;;10.75;4.53;;;16.30;99.60;;;;;;5046321;28;20045;-91
2023/10/05 11:24:16;;;;;;;11.45;4.15;;;16.30;98.20;;;;;;5050630;28;20037;-91
2023/10/05 11:29:48;;;;;;;10.43;4.70;;;16.40;98.70;;;;;;5040800;28;20053;-87
2023/10/05 11:32:19;;;;;;;9.07;3.75;;;16.40;98.10;;;;;;5018553;28;20053;-89
2023/10/05 11:34:46;;;;;;;9.27;3.83;;;16.60;96.90;;;;;;5052316;28;20052;-88
2023/10/05 11:37:17;;;;;;;9.60;3.95;;;16.60;96.40;;;;;;5036789;28;20041;-87
2023/10/05 11:39:59;;;;;;;12.20;4.10;;;16.70;95.70;;;;;;5052869;28;20076;-87
2023/10/05 11:42:35;;;;;;;;;;;;;;;;;;;;;
2023/10/05 11:45:12;;;;;;;7.82;3.80;;;16.90;94.70;;;;;;5055019;28;20056;-87
2023/10/05 11:47:44;;;;;;;;;;;16.90;93.30;;;;;;5050231;28;20049;-88
2023/10/05 11:52:55;;;;;;;12.07;4.90;;;17.30;91.40;;;;;;5054477;28;20067;-93
2023/10/05 11:55:23;;;;;;;13.00;4.00;;;17.40;88.80;;;;;;5027468;28;20502;-87
2023/10/05 11:57:58;;;;;;;10.50;3.90;;;17.40;82.50;;;;;;5026170;28;20061;-87
2023/10/05 12:00:34;;;;;;;9.35;4.05;;;17.30;78.30;;;;;;5058467;28;20074;-86
2023/10/05 12:03:01;;;;;;;13.13;3.67;;;17.20;79.10;;;;;;5058696;28;20059;-90
2023/10/05 12:05:33;;;;;;;11.02;4.05;;;17.10;83.30;;;;;;5058548;28;20049;-86
2023/10/05 12:08:04;;;;;;;10.35;4.18;;;17.00;79.20;;;;;;5059092;28;20134;-86
2023/10/05 12:10:32;;;;;;;13.48;4.50;;;16.90;82.50;;;;;;5026583;28;20097;-85
2023/10/05 12:13:01;;;;;;;9.45;3.72;;;16.10;84.80;;;;;;5041714;28;20087;-85
2023/10/05 12:15:30;;;;;;;12.43;4.95;;;16.10;86.10;;;;;;5058215;28;20555;-86
2023/10/05 12:17:57;;;;;;;11.07;3.53;;;16.90;89.10;;;;;;5058467;28;20045;-85
2023/10/05 12:20:25;;;;;;;13.57;3.92;;;17.00;86.20;;;;;;5057803;28;20385;-86
2023/10/05 12:22:50;;;;;;;10.02;3.85;;;16.90;84.90;;;;;;5041476;28;20052;-86
2023/10/05 12:25:24;;;;;;;9.07;4.05;;;16.90;84.10;;;;;;5040921;28;20044;-87
2023/10/05 12:27:59;;;;;;;10.75;3.55;;;16.90;84.10;;;;;;5058292;28;20379;-86
2023/10/05 12:30:38;;;;;;;13.27;3.47;;;16.90;82.60;;;;;;5057629;28;20523;-86
2023/10/05 12:33:08;;;;;;;8.45;3.63;;;16.90;76.60;;;;;;5041130;28;20144;-89
2023/10/05 12:35:39;;;;;;;7.28;3.05;;;16.80;79.50;;;;;;5058060;28;20048;-86
2023/10/05 12:38:15;;;;;;;6.55;3.35;;;16.60;77.00;;;;;;5058032;28;20375;-89
2023/10/05 12:40:41;;;;;;;8.70;3.08;;;16.60;79.80;;;;;;5058145;28;20045;-87
2023/10/05 12:43:15;;;;;;;11.85;3.78;;;16.40;81.80;;;;;;5040338;28;20080;-87
2023/10/05 12:45:45;;;;;;;14.45;3.78;;;16.40;83.20;;;;;;5057737;28;20052;-87
2023/10/05 12:48:15;;;;;;;10.15;3.90;;;16.30;85.80;;;;;;5024891;28;20052;-86
2023/10/05 12:50:41;;;;;;;6.53;3.45;;;16.70;86.10;;;;;;5057636;28;20520;-86
2023/10/05 12:53:07;;;;;;;10.05;4.57;;;16.20;88.80;;;;;;5057428;28;20390;-89
2023/10/05 12:55:35;;;;;;;11.52;5.70;;;16.20;90.20;;;;;;5024242;28;20094;-86
2023/10/05 12:58:03;;;;;;;11.43;4.32;;;16.20;91.10;;;;;;5057843;28;20090;-86
2023/10/05 13:00:34;;;;;;;9.38;3.45;;;16.10;92.50;;;;;;5024241;28;20098;-86
2023/10/05 13:03:05;;;;;;;12.65;4.25;;;16.20;93.30;;;;;;5057901;28;20067;-86
2023/10/05 13:05:47;;;;;;;12.60;4.30;;;16.20;93.80;;;;;;5057161;28;20091;-86
2023/10/05 13:08:16;;;;;;;9.27;3.70;;;16.30;94.20;;;;;;5011211;28;20060;-87
2023/10/05 13:10:43;;;;;;;7.63;3.50;;;16.30;94.60;;;;;;5058016;28;20044;-85
2023/10/05 13:13:17;;;;;;;7.97;4.22;;;16.40;95.30;;;;;;5040725;28;20375;-90
2023/10/05 13:15:51;;;;;;;11.32;4.85;;;16.40;95.50;;;;;;5040810;28;20452;-86
2023/10/05 13:18:18;;;;;;;8.93;4.18;;;16.10;96.10;;;;;;5057271;28;20402;-86
2023/10/05 13:20:48;;;;;;;13.50;4.72;;;16.60;96.40;;;;;;5057259;28;20044;-87
2023/10/05 13:23:22;;;;;;;12.07;4.20;;;16.50;96.60;;;;;;5056782;28;20090;-87
2023/10/05 13:25:54;;;;;;;9.68;5.00;;;16.20;96.90;;;;;;5056645;28;20045;-86
2023/10/05 13:28:24;;;;;;;7.03;4.00;;;16.60;96.80;;;;;;5056838;28;20048;-87
2023/10/05 13:30:50;;;;;;;11.50;4.38;;;15.90;96.30;;;;;;5056738;28;20040;-87
2023/10/05 13:33:28;;;;;;;9.38;3.80;;;16.60;96.80;;;;;;5056622;28;20045;-87
2023/10/05 13:35:59;;;;;;;9.30;4.10;;;16.70;96.80;;;;;;5056755;28;20055;-86